Time;durP1;ratioP1;P1;durP2;ratioP2;P2;SDS_P1;SDS_P2;PMS_P1;PMS_P2;Temp;Humidity;BMP_temperature;BMP_pressure;BME280_temperature;BME280_humidity;BME280_pressure;Samples;Min_cycle;Max_cycle;Signal;HPM_P1;HPM_P2
2021/03/25 00:00:33;;;;;;;;;;;7.10;99.90;;;;;;13182840;22;20006;-85
2021/03/25 00:05:34;;;;;;;;;;;6.70;99.90;;;;;;13183157;22;19933;-87
2021/03/25 00:10:36;;;;;;;;;;;6.70;99.90;;;;;;13156612;22;19919;-87
2021/03/25 00:15:38;;;;;;;;;;;7.10;99.90;;;;;;13155870;22;19941;-87
2021/03/25 00:20:39;;;;;;;;;;;7.20;99.90;;;;;;13155796;22;20251;-87
2021/03/25 00:25:41;;;;;;;;;;;7.50;99.90;;;;;;13156248;22;19918;-87
2021/03/25 00:30:42;;;;;;;;;;;9.20;99.90;;;;;;13155770;22;19985;-87
2021/03/25 00:35:44;;;;;;;;;;;6.70;99.90;;;;;;13155973;22;19918;-87
2021/03/25 00:40:47;;;;;;;;;;;6.70;99.90;;;;;;13155381;22;19989;-87
2021/03/25 00:45:50;;;;;;;;;;;6.60;99.90;;;;;;13155301;22;19922;-87
2021/03/25 00:50:53;;;;;;;;;;;7.10;99.90;;;;;;13182550;22;19918;-87
2021/03/25 00:55:54;;;;;;;;;;;7.10;99.90;;;;;;13156230;22;19989;-87
2021/03/25 01:00:56;;;;;;;;;;;7.70;99.90;;;;;;13128793;22;20243;-87
2021/03/25 01:05:58;;;;;;;;;;;8.00;99.90;;;;;;13182458;22;19918;-87
2021/03/25 01:11:01;;;;;;;;;;;6.50;99.90;;;;;;13155389;22;19961;-87
2021/03/25 01:16:03;;;;;;;;;;;9.10;99.90;;;;;;13154372;22;19945;-87
2021/03/25 01:21:05;;;;;;;;;;;6.70;99.90;;;;;;13155755;22;19918;-87
2021/03/25 01:26:06;;;;;;;;;;;6.60;99.90;;;;;;13154429;22;19953;-87
2021/03/25 01:31:08;;;;;;;;;;;6.60;99.90;;;;;;13128074;22;19925;-87
2021/03/25 01:36:09;;;;;;;;;;;8.90;99.90;;;;;;13154081;22;20000;-87
2021/03/25 01:41:10;;;;;;;;;;;6.60;99.90;;;;;;13153933;22;20383;-87
2021/03/25 01:46:23;;;;;;;;;;;9.30;99.90;;;;;;13154222;22;19983;-87
2021/03/25 01:51:27;;;;;;;;;;;6.70;99.90;;;;;;13154759;22;19922;-87
2021/03/25 01:56:39;;;;;;;;;;;6.70;99.90;;;;;;13154858;22;19950;-87
2021/03/25 02:01:42;;;;;;;;;;;6.80;99.90;;;;;;13154667;22;19945;-87
2021/03/25 02:07:00;;;;;;;;;;;6.80;99.90;;;;;;13153638;22;19945;-87
2021/03/25 02:12:11;;;;;;;;;;;6.80;99.90;;;;;;13181953;22;19930;-87
2021/03/25 02:17:23;;;;;;;;;;;6.80;99.90;;;;;;13154659;22;20196;-87
2021/03/25 02:22:36;;;;;;;;;;;6.90;99.90;;;;;;13181378;22;19972;-87
2021/03/25 02:27:37;;;;;;;;;;;6.90;99.90;;;;;;13153670;22;19940;-87
2021/03/25 02:32:43;;;;;;;;;;;9.90;99.90;;;;;;13154149;22;20008;-87
2021/03/25 02:37:46;;;;;;;;;;;7.20;99.90;;;;;;13180926;22;20282;-87
2021/03/25 02:42:51;;;;;;;;;;;7.10;99.90;;;;;;13153458;22;20353;-87
2021/03/25 02:48:01;;;;;;;;;;;7.00;99.90;;;;;;13153970;22;19945;-87
2021/03/25 02:53:17;;;;;;;;;;;7.00;99.90;;;;;;13184079;22;20369;-87
2021/03/25 02:58:20;;;;;;;;;;;7.10;99.90;;;;;;13185071;22;19922;-87
2021/03/25 03:03:24;;;;;;;;;;;7.00;99.90;;;;;;13184697;22;20469;-87
2021/03/25 03:08:28;;;;;;;;;;;7.90;99.90;;;;;;13158241;22;19926;-87
2021/03/25 03:13:32;;;;;;;;;;;7.00;99.90;;;;;;13157393;22;20321;-87
2021/03/25 03:18:36;;;;;;;;;;;7.20;99.90;;;;;;13156948;22;20414;-87
2021/03/25 03:23:38;;;;;;;;;;;7.40;99.90;;;;;;13185417;22;19949;-87
2021/03/25 03:28:41;;;;;;;;;;;7.10;99.90;;;;;;13157634;22;19945;-87
2021/03/25 03:33:52;;;;;;;;;;;10.00;99.90;;;;;;13156271;22;20239;-87
2021/03/25 03:38:57;;;;;;;;;;;7.00;99.90;;;;;;13156526;22;19925;-87
2021/03/25 03:43:59;;;;;;;;;;;7.10;99.90;;;;;;13156189;22;19993;-87
2021/03/25 03:49:05;;;;;;;;;;;7.10;99.90;;;;;;13185083;22;19918;-87
2021/03/25 03:54:07;;;;;;;;;;;7.50;99.90;;;;;;13183907;22;19918;-87
2021/03/25 03:59:10;;;;;;;;;;;7.30;99.90;;;;;;13156804;22;19993;-87
2021/03/25 04:04:15;;;;;;;;;;;7.30;99.90;;;;;;13156483;22;19998;-87
2021/03/25 04:09:19;;;;;;;;;;;8.50;99.90;;;;;;13183369;22;19945;-87
2021/03/25 04:14:29;;;;;;;;;;;10.00;99.90;;;;;;13183664;22;19924;-87
2021/03/25 04:19:39;;;;;;;;;;;7.30;99.90;;;;;;13156564;22;19926;-87
2021/03/25 04:24:50;;;;;;;;;;;7.20;99.90;;;;;;13183175;22;19997;-87
2021/03/25 04:29:51;;;;;;;;;;;7.30;99.90;;;;;;13156189;22;19918;-87
2021/03/25 04:34:52;;;;;;;;;;;7.20;99.90;;;;;;13154869;22;20349;-87
2021/03/25 04:39:54;;;;;;;;;;;7.20;99.90;;;;;;13129324;22;20010;-87
2021/03/25 04:45:08;;;;;;;;;;;7.20;99.90;;;;;;13156176;22;19918;-87
2021/03/25 04:50:15;;;;;;;;;;;7.20;99.90;;;;;;13155818;22;19989;-87
2021/03/25 04:55:21;;;;;;;;;;;7.20;99.90;;;;;;13184219;22;19953;-87
2021/03/25 05:00:26;;;;;;;;;;;7.10;99.90;;;;;;13155033;22;19997;-87
2021/03/25 05:05:29;;;;;;;;;;;7.10;99.90;;;;;;13155662;22;19981;-87
2021/03/25 05:10:34;;;;;;;;;;;7.60;99.90;;;;;;13154697;22;19930;-87
2021/03/25 05:15:36;;;;;;;;;;;7.10;99.90;;;;;;13154889;22;20001;-87
2021/03/25 05:20:43;;;;;;;;;;;7.10;99.90;;;;;;13128321;22;19934;-87
2021/03/25 05:25:47;;;;;;;;;;;9.90;99.90;;;;;;13154456;22;19981;-87
2021/03/25 05:30:50;;;;;;;;;;;7.20;99.90;;;;;;13154412;22;20347;-87
2021/03/25 05:35:54;;;;;;;;;;;7.10;99.90;;;;;;13154062;22;19954;-87
2021/03/25 05:41:02;;;;;;;;;;;7.10;99.90;;;;;;13154121;22;19981;-87
2021/03/25 05:46:09;;;;;;;;;;;7.10;99.90;;;;;;13153921;22;19971;-87
2021/03/25 05:51:49;;;;;;;;;;;6.90;99.90;;;;;;13154108;22;19983;-87
2021/03/25 05:57:09;;;;;;;;;;;6.60;99.90;;;;;;12830760;23;19920;-87
2021/03/25 06:02:16;;;;;;;;;;;6.50;99.90;;;;;;13102147;22;19926;-86
2021/03/25 06:07:36;;;;;;;;;;;6.30;99.90;;;;;;13152811;22;19953;-86
2021/03/25 06:12:45;;;;;;;;;;;6.20;99.90;;;;;;13152864;22;19922;-86
2021/03/25 06:17:51;;;;;;;;;;;6.30;99.90;;;;;;13152555;22;19922;-87
2021/03/25 06:22:53;;;;;;;;;;;8.10;99.90;;;;;;13153539;22;19990;-86
2021/03/25 06:28:00;;;;;;;;;;;6.20;99.90;;;;;;13152693;22;19989;-87
2021/03/25 06:33:05;;;;;;;;;;;6.20;99.90;;;;;;13153827;22;19919;-86
2021/03/25 06:38:19;;;;;;;;;;;6.50;99.90;;;;;;13179846;22;19918;-87
2021/03/25 06:43:31;;;;;;;;;;;6.60;99.90;;;;;;13180362;22;19989;-87
2021/03/25 06:48:37;;;;;;;;;;;6.90;99.90;;;;;;13152278;22;20353;-86
2021/03/25 06:53:38;;;;;;;;;;;7.40;99.90;;;;;;13152840;22;19985;-87
2021/03/25 06:58:44;;;;;;;;;;;7.90;99.90;;;;;;13126968;22;19956;-87
2021/03/25 07:03:46;;;;;;;;;;;8.40;99.90;;;;;;13152610;22;20258;-87
2021/03/25 07:08:48;;;;;;;;;;;8.40;99.90;;;;;;13152072;22;20258;-87
2021/03/25 07:13:57;;;;;;;;;;;9.70;99.90;;;;;;13153023;22;20172;-87
2021/03/25 07:19:01;;;;;;;;;;;9.30;99.90;;;;;;13152620;22;20036;-87
2021/03/25 07:24:05;;;;;;;;;;;9.10;99.90;;;;;;13152470;22;20390;-87
2021/03/25 07:29:06;;;;;;;;;;;9.30;99.90;;;;;;13179258;22;19923;-87
2021/03/25 07:34:08;;;;;;;;;;;9.70;99.90;;;;;;13151680;22;19925;-86
2021/03/25 07:39:09;;;;;;;;;;;9.60;99.90;;;;;;13154733;22;19925;-87
2021/03/25 07:44:29;;;;;;;;;;;10.10;99.90;;;;;;13128032;22;20306;-86
2021/03/25 07:49:35;;;;;;;;;;;10.10;99.90;;;;;;13182717;22;19965;-86
2021/03/25 07:54:38;;;;;;;;;;;9.80;99.90;;;;;;13156118;22;19941;-86
2021/03/25 07:59:42;;;;;;;;;;;9.90;99.90;;;;;;13155045;22;19918;-86
2021/03/25 08:04:44;;;;;;;;;;;10.80;99.90;;;;;;13155043;22;19989;-86
2021/03/25 08:09:51;;;;;;;;;;;11.10;99.90;;;;;;13155734;22;19993;-86
2021/03/25 08:15:04;;;;;;;;;;;11.20;99.90;;;;;;13181826;22;19948;-86
2021/03/25 08:20:14;;;;;;;;;;;12.30;99.90;;;;;;13182405;22;20243;-87
2021/03/25 08:25:34;;;;;;;;;;;12.40;99.90;;;;;;13155589;22;19918;-86
2021/03/25 08:30:50;;;;;;;;;;;12.70;99.90;;;;;;13155103;22;19993;-86
2021/03/25 08:36:00;;;;;;;;;;;13.40;99.90;;;;;;13182887;22;19971;-87
2021/03/25 08:41:07;;;;;;;;;;;14.80;99.90;;;;;;13182886;22;19967;-86
2021/03/25 08:46:12;;;;;;;;;;;15.10;99.90;;;;;;13181622;22;20216;-87
2021/03/25 08:51:13;;;;;;;;;;;15.10;99.90;;;;;;13153575;22;19941;-86
2021/03/25 08:56:22;;;;;;;;;;;14.60;99.90;;;;;;13171766;22;19936;-86
2021/03/25 09:01:41;;;;;;;;;;;14.50;99.90;;;;;;13145837;22;19928;-87
2021/03/25 09:06:44;;;;;;;;;;;15.80;99.90;;;;;;13145232;22;19922;-87
2021/03/25 09:11:46;;;;;;;;;;;16.10;99.50;;;;;;13144740;22;19923;-87
2021/03/25 09:16:47;;;;;;;;;;;16.40;97.50;;;;;;13119006;22;19922;-87
2021/03/25 09:21:49;;;;;;;;;;;16.40;97.40;;;;;;13144532;22;20297;-87
2021/03/25 09:26:57;;;;;;;;;;;16.20;98.40;;;;;;13173282;22;19993;-87
2021/03/25 09:31:58;;;;;;;;;;;16.40;97.10;;;;;;13170603;22;20020;-87
2021/03/25 09:37:15;;;;;;;;;;;16.20;95.70;;;;;;13145975;22;19951;-86
2021/03/25 09:42:17;;;;;;;;;;;14.90;98.30;;;;;;13144581;22;20001;-86
2021/03/25 09:47:36;;;;;;;;;;;16.10;98.20;;;;;;13172549;22;19953;-87
2021/03/25 09:52:40;;;;;;;;;;;15.70;98.30;;;;;;13145363;22;19944;-87
2021/03/25 09:57:43;;;;;;;;;;;16.70;96.00;;;;;;13145076;22;19918;-87
2021/03/25 10:02:45;;;;;;;;;;;15.60;98.90;;;;;;13143779;22;20327;-87
2021/03/25 10:07:48;;;;;;;;;;;16.70;94.80;;;;;;13144046;22;19918;-86
2021/03/25 10:12:54;;;;;;;;;;;15.10;98.60;;;;;;13144023;22;20021;-86
2021/03/25 10:17:57;;;;;;;;;;;14.90;98.80;;;;;;13172253;22;20245;-87
2021/03/25 10:22:58;;;;;;;;;;;15.20;99.70;;;;;;13145517;22;20331;-87
2021/03/25 10:28:01;;;;;;;;;;;14.60;99.90;;;;;;13117854;22;19993;-86
2021/03/25 10:33:04;;;;;;;;;;;14.40;99.90;;;;;;13143865;22;20004;-86
2021/03/25 10:38:08;;;;;;;;;;;14.60;99.90;;;;;;13144023;22;19922;-86
2021/03/25 10:43:14;;;;;;;;;;;14.70;99.90;;;;;;13137557;22;20364;-86
2021/03/25 10:48:17;;;;;;;;;;;15.10;99.20;;;;;;13144363;22;19929;-87
2021/03/25 10:53:24;;;;;;;;;;;16.10;98.70;;;;;;13171324;22;20251;-87
2021/03/25 10:58:26;;;;;;;;;;;16.00;97.10;;;;;;13143274;22;19928;-86
2021/03/25 11:03:33;;;;;;;;;;;15.70;97.40;;;;;;13170553;22;19970;-87
2021/03/25 11:08:37;;;;;;;;;;;15.50;97.60;;;;;;13170661;22;19924;-86
2021/03/25 11:13:39;;;;;;;;;;;14.90;98.50;;;;;;13146153;22;19929;-87
2021/03/25 11:18:45;;;;;;;;;;;14.70;99.80;;;;;;13172211;22;19973;-87
2021/03/25 11:23:47;;;;;;;;;;;15.20;99.60;;;;;;13148378;22;19922;-87
2021/03/25 11:28:48;;;;;;;;;;;15.20;98.90;;;;;;13175330;22;20335;-87
2021/03/25 11:33:51;;;;;;;;;;;15.00;98.50;;;;;;13146805;22;19987;-86
2021/03/25 11:38:52;;;;;;;;;;;14.50;99.90;;;;;;13147586;22;19987;-85
2021/03/25 11:43:55;;;;;;;;;;;14.30;99.90;;;;;;13121606;22;20362;-86
2021/03/25 11:49:07;;;;;;;;;;;14.20;99.90;;;;;;13174095;22;19993;-86
2021/03/25 11:54:27;;;;;;;;;;;13.90;99.90;;;;;;13143088;22;20331;-86
2021/03/25 11:59:30;;;;;;;;;;;13.90;99.90;;;;;;13174898;22;19922;-85
2021/03/25 12:04:31;;;;;;;;;;;13.80;99.90;;;;;;13175907;22;20009;-87
2021/03/25 12:09:33;;;;;;;;;;;13.60;99.90;;;;;;13123811;22;19946;-86
2021/03/25 12:14:35;;;;;;;;;;;13.40;99.90;;;;;;13148849;22;20342;-86
2021/03/25 12:19:36;;;;;;;;;;;13.60;99.90;;;;;;13123267;22;19928;-87
2021/03/25 12:24:48;;;;;;;;;;;13.40;99.90;;;;;;13154322;22;19922;-88
2021/03/25 12:29:50;;;;;;;;;;;13.30;99.90;;;;;;13148933;22;19993;-86
2021/03/25 12:34:51;;;;;;;;;;;13.30;99.90;;;;;;13177727;22;20001;-86
2021/03/25 12:39:53;;;;;;;;;;;13.10;99.90;;;;;;13176727;22;19989;-86
2021/03/25 12:44:55;;;;;;;;;;;13.20;99.90;;;;;;13149872;22;20005;-86
2021/03/25 12:50:01;;;;;;;;;;;13.00;99.90;;;;;;13150211;22;20374;-86
2021/03/25 12:55:03;;;;;;;;;;;12.10;99.90;;;;;;13149839;22;19922;-86
2021/03/25 13:00:09;;;;;;;;;;;12.00;99.90;;;;;;13146896;22;19945;-87
2021/03/25 13:05:11;;;;;;;;;;;12.10;99.90;;;;;;13150114;22;19997;-86
2021/03/25 13:10:17;;;;;;;;;;;12.00;99.90;;;;;;13150518;22;20021;-86
2021/03/25 13:15:20;;;;;;;;;;;11.70;99.90;;;;;;13149594;22;19980;-85
2021/03/25 13:20:23;;;;;;;;;;;12.00;99.90;;;;;;13148107;22;19918;-85
2021/03/25 13:25:27;;;;;;;;;;;12.10;99.90;;;;;;13148387;22;19919;-85
2021/03/25 13:30:28;;;;;;;;;;;12.50;99.90;;;;;;13176606;22;20314;-86
2021/03/25 13:35:30;;;;;;;;;;;12.70;99.90;;;;;;13143188;22;19923;-85
2021/03/25 13:40:33;;;;;;;;;;;12.90;99.90;;;;;;13149092;22;19959;-85
2021/03/25 13:45:34;;;;;;;;;;;13.00;99.90;;;;;;13148956;22;19985;-85
2021/03/25 13:50:36;;;;;;;;;;;13.20;99.90;;;;;;13149495;22;20274;-86
2021/03/25 13:55:40;;;;;;;;;;;13.00;99.90;;;;;;13176102;22;19925;-85
2021/03/25 14:00:41;;;;;;;;;;;12.90;99.90;;;;;;13177802;22;19997;-85
2021/03/25 14:05:42;;;;;;;;;;;12.50;99.90;;;;;;13121546;22;20319;-85
2021/03/25 14:10:44;;;;;;;;;;;12.40;99.90;;;;;;13116939;22;20344;-86
2021/03/25 14:15:47;;;;;;;;;;;12.60;99.90;;;;;;13148425;22;19922;-85
2021/03/25 14:20:48;;;;;;;;;;;12.60;99.90;;;;;;13147957;22;19922;-85
2021/03/25 14:25:50;;;;;;;;;;;12.70;99.90;;;;;;13148267;22;19929;-85
2021/03/25 14:30:52;;;;;;;;;;;12.30;99.90;;;;;;13149160;22;20335;-85
2021/03/25 14:35:53;;;;;;;;;;;12.90;99.90;;;;;;13177775;22;19929;-85
2021/03/25 14:40:55;;;;;;;;;;;12.30;99.90;;;;;;13148963;22;19925;-85
2021/03/25 14:45:57;;;;;;;;;;;12.30;99.90;;;;;;13146404;22;19994;-86
2021/03/25 14:50:58;;;;;;;;;;;12.20;99.90;;;;;;13181277;22;20293;-86
2021/03/25 14:55:59;;;;;;;;;;;12.90;99.90;;;;;;13121724;22;20041;-87
2021/03/25 15:01:01;;;;;;;;;;;12.40;99.90;;;;;;13149656;22;19925;-86
2021/03/25 15:06:03;;;;;;;;;;;12.50;99.90;;;;;;13148597;22;19925;-86
2021/03/25 15:11:04;;;;;;;;;;;12.60;99.90;;;;;;13124647;22;19918;-87
2021/03/25 15:16:05;;;;;;;;;;;12.80;99.90;;;;;;13150025;22;20338;-86
2021/03/25 15:21:07;;;;;;;;;;;12.80;99.90;;;;;;13118297;22;20255;-86
2021/03/25 15:26:10;;;;;;;;;;;13.30;99.90;;;;;;13124412;22;19989;-86
2021/03/25 15:31:11;;;;;;;;;;;13.30;98.70;;;;;;13177105;22;19922;-86
2021/03/25 15:36:14;;;;;;;;;;;13.40;98.40;;;;;;13149928;22;19922;-86
2021/03/25 15:41:17;;;;;;;;;;;13.20;99.60;;;;;;13180541;22;19925;-86
2021/03/25 15:46:23;;;;;;;;;;;13.20;99.80;;;;;;13150197;22;19926;-86
2021/03/25 15:51:26;;;;;;;;;;;13.10;99.60;;;;;;13150332;22;19922;-85
2021/03/25 15:56:27;;;;;;;;;;;12.70;99.90;;;;;;13148065;22;19953;-85
2021/03/25 16:01:29;;;;;;;;;;;12.50;99.90;;;;;;13178144;22;19918;-86
2021/03/25 16:06:30;;;;;;;;;;;12.40;99.90;;;;;;13123996;22;19922;-85
2021/03/25 16:11:31;;;;;;;;;;;12.60;99.90;;;;;;13149600;22;20366;-85
2021/03/25 16:16:33;;;;;;;;;;;13.00;99.90;;;;;;13124205;22;19926;-86
2021/03/25 16:21:34;;;;;;;;;;;12.40;99.30;;;;;;13149170;22;19922;-86
2021/03/25 16:26:35;;;;;;;;;;;12.80;99.40;;;;;;13151087;22;19965;-86
2021/03/25 16:31:37;;;;;;;;;;;12.50;98.70;;;;;;13180569;22;19996;-85
2021/03/25 16:36:39;;;;;;;;;;;12.30;97.20;;;;;;13179496;22;19922;-85
2021/03/25 16:41:40;;;;;;;;;;;12.20;98.10;;;;;;13177110;22;19918;-86
2021/03/25 16:46:42;;;;;;;;;;;12.00;97.70;;;;;;13122072;22;19925;-86
2021/03/25 16:51:43;;;;;;;;;;;11.90;98.10;;;;;;13150241;22;20001;-85
2021/03/25 16:56:45;;;;;;;;;;;11.90;98.80;;;;;;13176007;22;20030;-86
2021/03/25 17:01:46;;;;;;;;;;;11.70;97.60;;;;;;13147271;22;20265;-86
2021/03/25 17:06:48;;;;;;;;;;;11.60;97.90;;;;;;13115166;22;19953;-86
2021/03/25 17:11:49;;;;;;;;;;;11.60;97.80;;;;;;13147296;22;20321;-86
2021/03/25 17:16:50;;;;;;;;;;;12.40;98.80;;;;;;13178639;22;19918;-85
2021/03/25 17:21:52;;;;;;;;;;;11.10;99.90;;;;;;13148184;22;19926;-82
2021/03/25 17:26:54;;;;;;;;;;;10.90;99.90;;;;;;13173157;22;20380;-83
2021/03/25 17:31:55;;;;;;;;;;;10.70;99.90;;;;;;13145324;22;20044;-83
2021/03/25 17:36:57;;;;;;;;;;;10.40;99.90;;;;;;13119422;22;19928;-82
2021/03/25 17:41:58;;;;;;;;;;;10.20;99.90;;;;;;13144044;22;19989;-83
2021/03/25 17:46:59;;;;;;;;;;;10.20;99.90;;;;;;13145463;22;19922;-83
2021/03/25 17:52:01;;;;;;;;;;;9.70;99.90;;;;;;13145024;22;19934;-83
2021/03/25 17:57:02;;;;;;;;;;;9.60;99.90;;;;;;13144557;22;20323;-82
2021/03/25 18:02:03;;;;;;;;;;;9.20;99.90;;;;;;13172294;22;19922;-82
2021/03/25 18:07:05;;;;;;;;;;;9.10;99.90;;;;;;13150169;22;19918;-86
2021/03/25 18:12:07;;;;;;;;;;;8.80;99.90;;;;;;13127399;22;19929;-87
2021/03/25 18:17:13;;;;;;;;;;;8.70;99.90;;;;;;13128090;22;19925;-86
2021/03/25 18:22:14;;;;;;;;;;;8.60;99.90;;;;;;13127634;22;19922;-86
2021/03/25 18:27:31;;;;;;;;;;;8.90;99.90;;;;;;13156396;22;19918;-86
2021/03/25 18:32:33;;;;;;;;;;;8.30;99.90;;;;;;13128347;22;19922;-86
2021/03/25 18:37:34;;;;;;;;;;;8.20;99.90;;;;;;13153081;22;19922;-87
2021/03/25 18:42:36;;;;;;;;;;;8.30;99.90;;;;;;13179787;22;19922;-86
2021/03/25 18:47:38;;;;;;;;;;;8.20;99.90;;;;;;13127687;22;19923;-86
2021/03/25 18:52:39;;;;;;;;;;;8.10;99.90;;;;;;13152465;22;20001;-86
2021/03/25 18:57:41;;;;;;;;;;;8.00;99.90;;;;;;13153322;22;19994;-86
2021/03/25 19:02:43;;;;;;;;;;;9.30;99.90;;;;;;13151971;22;20338;-87
2021/03/25 19:07:44;;;;;;;;;;;8.70;99.90;;;;;;13124547;22;19922;-87
2021/03/25 19:12:47;;;;;;;;;;;7.90;99.90;;;;;;13151391;22;20335;-87
2021/03/25 19:17:49;;;;;;;;;;;10.60;99.90;;;;;;13151411;22;20343;-87
2021/03/25 19:22:50;;;;;;;;;;;8.40;99.90;;;;;;13151595;22;19925;-86
2021/03/25 19:27:52;;;;;;;;;;;7.40;99.90;;;;;;13151393;22;19922;-87
2021/03/25 19:32:53;;;;;;;;;;;7.40;99.90;;;;;;13148925;22;19953;-85
2021/03/25 19:37:55;;;;;;;;;;;7.80;99.90;;;;;;13147972;22;19929;-86
2021/03/25 19:42:58;;;;;;;;;;;10.30;99.90;;;;;;13146733;22;19926;-86
2021/03/25 19:48:00;;;;;;;;;;;7.20;99.90;;;;;;13147831;22;19926;-85
2021/03/25 19:53:03;;;;;;;;;;;8.00;99.90;;;;;;13122094;22;19997;-85
2021/03/25 19:58:22;;;;;;;;;;;7.90;99.90;;;;;;13129069;22;19930;-86
2021/03/25 20:03:24;;;;;;;;;;;7.40;99.90;;;;;;13121111;22;19922;-85
2021/03/25 20:08:31;;;;;;;;;;;8.70;99.90;;;;;;13104957;22;19997;-85
2021/03/25 20:13:33;;;;;;;;;;;7.50;99.90;;;;;;13113653;22;19961;-85
2021/03/25 20:18:41;;;;;;;;;;;7.40;99.90;;;;;;13119118;22;20416;-85
2021/03/25 20:23:44;;;;;;;;;;;9.50;99.90;;;;;;13115310;22;20616;-85
2021/03/25 20:28:52;;;;;;;;;;;10.00;99.90;;;;;;13118293;22;19922;-85
2021/03/25 20:33:53;;;;;;;;;;;8.00;99.90;;;;;;13118840;22;19922;-86
2021/03/25 20:38:55;;;;;;;;;;;8.80;99.90;;;;;;13116313;22;19951;-85
2021/03/25 20:43:56;;;;;;;;;;;7.50;99.90;;;;;;13116342;22;19941;-86
2021/03/25 20:49:00;;;;;;;;;;;9.70;99.90;;;;;;13117710;22;19925;-86
2021/03/25 20:54:03;;;;;;;;;;;7.30;99.90;;;;;;13116676;22;19922;-86
2021/03/25 20:59:19;;;;;;;;;;;7.10;99.90;;;;;;13119059;22;19929;-86
2021/03/25 21:04:21;;;;;;;;;;;6.90;99.90;;;;;;13116912;22;19918;-85
2021/03/25 21:09:22;;;;;;;;;;;6.80;99.90;;;;;;13154535;22;19952;-86
2021/03/25 21:14:24;;;;;;;;;;;6.60;99.90;;;;;;13183299;22;19953;-86
2021/03/25 21:19:25;;;;;;;;;;;7.60;99.90;;;;;;13150077;22;19990;-86
2021/03/25 21:24:26;;;;;;;;;;;7.60;99.90;;;;;;13129851;22;19965;-86
2021/03/25 21:29:39;;;;;;;;;;;6.40;99.90;;;;;;13157135;22;20575;-85
2021/03/25 21:34:41;;;;;;;;;;;6.50;99.90;;;;;;13182694;22;19924;-85
2021/03/25 21:39:42;;;;;;;;;;;8.50;99.90;;;;;;13155480;22;19985;-85
2021/03/25 21:44:44;;;;;;;;;;;6.40;99.90;;;;;;13155640;22;19959;-85
2021/03/25 21:49:46;;;;;;;;;;;7.40;99.90;;;;;;13183810;22;19925;-85
2021/03/25 21:54:47;;;;;;;;;;;6.10;99.90;;;;;;13129019;22;20402;-85
2021/03/25 21:59:56;;;;;;;;;;;7.40;99.90;;;;;;13132257;22;19972;-86
2021/03/25 22:04:58;;;;;;;;;;;7.00;99.90;;;;;;13128515;22;20387;-85
2021/03/25 22:09:59;;;;;;;;;;;6.10;99.90;;;;;;13182436;22;19928;-85
2021/03/25 22:15:01;;;;;;;;;;;6.10;99.90;;;;;;13154180;22;19918;-85
2021/03/25 22:20:03;;;;;;;;;;;5.80;99.90;;;;;;13183061;22;19986;-85
2021/03/25 22:25:07;;;;;;;;;;;5.70;99.90;;;;;;13155897;22;19918;-85
2021/03/25 22:30:20;;;;;;;;;;;5.80;99.90;;;;;;13157431;22;20325;-86
2021/03/25 22:35:22;;;;;;;;;;;5.70;99.90;;;;;;13181598;22;19918;-85
2021/03/25 22:40:23;;;;;;;;;;;5.70;99.90;;;;;;13180338;22;19922;-85
2021/03/25 22:45:39;;;;;;;;;;;5.70;99.90;;;;;;13127644;22;19989;-85
2021/03/25 22:50:41;;;;;;;;;;;5.70;99.90;;;;;;13152428;22;19922;-85
2021/03/25 22:55:44;;;;;;;;;;;5.90;99.90;;;;;;13153367;22;19953;-85
2021/03/25 23:00:55;;;;;;;;;;;5.90;99.90;;;;;;13154868;22;19940;-87
2021/03/25 23:05:57;;;;;;;;;;;5.60;99.90;;;;;;13155540;22;19918;-87
2021/03/25 23:10:58;;;;;;;;;;;5.60;99.90;;;;;;13133021;22;20311;-87
2021/03/25 23:16:02;;;;;;;;;;;5.70;99.90;;;;;;13186473;22;19925;-87
2021/03/25 23:21:04;;;;;;;;;;;6.90;99.90;;;;;;13186682;22;20359;-87
2021/03/25 23:26:06;;;;;;;;;;;5.60;99.90;;;;;;13158602;22;19918;-87
2021/03/25 23:31:08;;;;;;;;;;;5.60;99.90;;;;;;13186381;22;19953;-87
2021/03/25 23:36:10;;;;;;;;;;;5.60;99.90;;;;;;13157932;22;19967;-87
2021/03/25 23:41:13;;;;;;;;;;;5.70;99.90;;;;;;13158540;22;19918;-86
2021/03/25 23:46:15;;;;;;;;;;;7.10;99.90;;;;;;13157380;22;20339;-87
2021/03/25 23:51:17;;;;;;;;;;;5.60;99.90;;;;;;13158420;22;20339;-87
2021/03/25 23:56:19;;;;;;;;;;;5.70;99.90;;;;;;13185543;22;20323;-87
